createdAt,value
2022-12-28T00:02:17.679Z,19.02
2022-12-28T00:04:45.271Z,9.52
2022-12-28T00:07:13.081Z,9.43
2022-12-28T00:09:40.716Z,6.80
2022-12-28T00:12:08.357Z,6.97
2022-12-28T00:14:36.101Z,4.03
2022-12-28T00:17:03.814Z,4.20
2022-12-28T00:19:31.442Z,4.47
2022-12-28T00:21:59.103Z,2.70
2022-12-28T00:24:26.752Z,4.15
2022-12-28T00:26:56.954Z,6.38
2022-12-28T00:29:24.616Z,4.47
2022-12-28T00:31:52.337Z,3.00
2022-12-28T00:34:24.582Z,4.18
2022-12-28T00:37:12.334Z,3.15
2022-12-28T00:39:41.739Z,3.38
2022-12-28T00:42:09.707Z,1.50
2022-12-28T00:44:38.112Z,3.55
2022-12-28T00:47:05.793Z,8.98
2022-12-28T00:49:33.307Z,5.68
2022-12-28T00:52:00.975Z,8.75
2022-12-28T00:54:29.299Z,10.43
2022-12-28T00:56:56.988Z,6.07
2022-12-28T00:59:24.527Z,5.55
2022-12-28T01:01:52.157Z,2.90
2022-12-28T01:04:19.835Z,1.67
2022-12-28T01:06:48.424Z,0.80
2022-12-28T01:09:16.019Z,1.42
2022-12-28T01:11:43.647Z,4.50
2022-12-28T01:14:11.234Z,6.45
2022-12-28T01:16:39.266Z,15.80
2022-12-28T01:19:09.067Z,14.00
2022-12-28T01:21:37.299Z,7.65
2022-12-28T01:24:08.672Z,7.30
2022-12-28T01:26:36.393Z,10.57
2022-12-28T01:29:04.161Z,16.92
2022-12-28T01:31:33.231Z,11.40
2022-12-28T01:34:01.861Z,10.02
2022-12-28T01:36:31.775Z,5.82
2022-12-28T01:39:01.297Z,3.35
2022-12-28T01:41:30.231Z,2.85
2022-12-28T01:43:57.750Z,1.83
2022-12-28T01:46:34.092Z,3.58
2022-12-28T01:49:07.379Z,6.90
2022-12-28T01:51:42.883Z,4.70
2022-12-28T01:54:10.830Z,3.65
2022-12-28T01:56:39.023Z,1.27
2022-12-28T01:59:08.036Z,2.35
2022-12-28T02:01:37.712Z,1.90
2022-12-28T02:04:05.453Z,4.15
2022-12-28T02:06:33.189Z,2.47
2022-12-28T02:09:12.360Z,1.33
2022-12-28T02:11:41.484Z,2.42
2022-12-28T02:14:11.469Z,1.33
2022-12-28T02:16:39.336Z,3.22
2022-12-28T02:19:12.196Z,3.30
2022-12-28T02:21:51.931Z,3.65
2022-12-28T02:24:38.164Z,2.70
2022-12-28T02:27:29.201Z,6.50
2022-12-28T02:30:12.607Z,3.80
2022-12-28T02:32:56.627Z,3.38
2022-12-28T02:35:51.754Z,1.70
2022-12-28T02:38:26.148Z,0.80
2022-12-28T02:41:01.507Z,2.58
2022-12-28T02:43:29.304Z,2.55
2022-12-28T02:46:16.616Z,3.63
2022-12-28T02:49:05.305Z,1.83
2022-12-28T02:51:51.523Z,1.10
2022-12-28T02:55:15.805Z,2.10
2022-12-28T02:58:02.762Z,3.20
2022-12-28T03:00:58.325Z,1.20
2022-12-28T03:03:28.920Z,0.98
2022-12-28T03:06:41.859Z,0.75
2022-12-28T03:09:30.695Z,0.80
2022-12-28T03:12:14.682Z,1.42
2022-12-28T03:14:49.571Z,1.33
2022-12-28T03:17:39.071Z,5.97
2022-12-28T03:20:35.907Z,1.80
2022-12-28T03:23:26.422Z,4.53
2022-12-28T03:26:14.545Z,4.70
2022-12-28T03:29:05.449Z,10.50
2022-12-28T03:31:38.703Z,7.18
2022-12-28T03:34:11.595Z,5.57
2022-12-28T03:37:00.039Z,5.70
2022-12-28T03:39:42.183Z,6.97
2022-12-28T03:42:37.637Z,4.22
2022-12-28T03:45:15.755Z,4.30
2022-12-28T03:48:05.115Z,8.68
2022-12-28T03:50:37.902Z,15.17
2022-12-28T03:53:09.438Z,14.10
2022-12-28T03:55:39.904Z,19.07
2022-12-28T03:58:09.951Z,20.30
2022-12-28T04:00:38.795Z,25.37
2022-12-28T04:03:08.240Z,16.90
2022-12-28T04:05:36.390Z,19.20
2022-12-28T04:08:04.133Z,24.98
2022-12-28T04:10:31.870Z,16.23
2022-12-28T04:12:59.437Z,17.90
2022-12-28T04:15:37.603Z,7.73
2022-12-28T04:18:05.575Z,9.68
2022-12-28T04:20:33.546Z,9.25
2022-12-28T04:23:02.027Z,6.87
2022-12-28T04:25:29.669Z,5.33
2022-12-28T04:27:57.483Z,13.05
2022-12-28T04:31:03.935Z,11.30
2022-12-28T04:33:37.317Z,16.70
2022-12-28T04:36:16.611Z,21.77
2022-12-28T04:38:46.383Z,20.20
2022-12-28T04:41:13.975Z,20.27
2022-12-28T04:43:41.760Z,17.10
2022-12-28T04:46:15.100Z,35.78
2022-12-28T04:48:43.289Z,16.02
2022-12-28T04:51:20.641Z,20.10
2022-12-28T04:53:48.489Z,25.38
2022-12-28T04:56:17.071Z,13.77
2022-12-28T04:58:47.091Z,15.85
2022-12-28T05:01:19.024Z,11.87
2022-12-28T05:03:54.379Z,22.33
2022-12-28T05:06:24.629Z,112.90
2022-12-28T05:08:52.263Z,36.60
2022-12-28T05:11:22.885Z,16.40
2022-12-28T05:13:50.878Z,22.70
2022-12-28T05:16:21.224Z,13.60
2022-12-28T05:18:49.475Z,14.53
2022-12-28T05:21:22.090Z,22.07
2022-12-28T05:23:49.822Z,21.00
2022-12-28T05:26:23.505Z,14.73
2022-12-28T05:28:51.472Z,17.63
2022-12-28T05:31:22.479Z,16.67
2022-12-28T05:33:50.682Z,16.60
2022-12-28T05:36:21.083Z,14.40
2022-12-28T05:38:49.335Z,13.00
2022-12-28T05:41:20.455Z,9.23
2022-12-28T05:43:48.543Z,10.10
2022-12-28T05:46:19.825Z,9.60
2022-12-28T05:48:48.222Z,9.13
2022-12-28T05:51:20.785Z,7.57
2022-12-28T05:53:48.761Z,9.52
2022-12-28T05:56:19.418Z,14.00
2022-12-28T05:58:52.100Z,13.87
2022-12-28T06:01:22.645Z,21.40
2022-12-28T06:03:55.189Z,10.33
2022-12-28T06:06:23.357Z,17.70
2022-12-28T06:08:50.957Z,9.37
2022-12-28T06:11:21.283Z,19.63
2022-12-28T06:13:49.308Z,21.30
2022-12-28T06:16:19.467Z,12.90
2022-12-28T06:18:47.751Z,11.87
2022-12-28T06:21:18.734Z,9.33
2022-12-28T06:23:47.688Z,9.30
2022-12-28T06:26:17.915Z,12.67
2022-12-28T06:28:45.670Z,34.80
2022-12-28T06:31:16.790Z,33.33
2022-12-28T06:33:45.223Z,56.63
2022-12-28T06:36:19.980Z,58.93
2022-12-28T06:38:49.406Z,14.27
2022-12-28T06:41:18.575Z,8.63
2022-12-28T06:43:47.374Z,14.97
2022-12-28T06:46:16.353Z,15.47
2022-12-28T06:48:44.307Z,4.90
2022-12-28T06:51:15.017Z,5.50
2022-12-28T06:53:43.576Z,6.43
2022-12-28T06:56:16.748Z,8.57
2022-12-28T06:58:45.671Z,7.57
2022-12-28T07:01:18.793Z,18.17
2022-12-28T07:03:48.117Z,15.90
2022-12-28T07:06:17.074Z,12.03
2022-12-28T07:08:45.041Z,8.07
2022-12-28T07:11:16.084Z,15.33
2022-12-28T07:13:43.827Z,20.03
2022-12-28T07:16:22.802Z,13.60
2022-12-28T07:18:50.725Z,11.95
2022-12-28T07:21:21.693Z,8.70
2022-12-28T07:23:50.895Z,10.40
2022-12-28T07:26:21.289Z,7.40
2022-12-28T07:28:51.707Z,10.97
2022-12-28T07:31:28.275Z,18.67
2022-12-28T07:33:57.954Z,35.50
2022-12-28T07:36:27.417Z,32.43
2022-12-28T07:38:55.073Z,23.90
2022-12-28T07:41:28.514Z,32.63
2022-12-28T07:44:00.121Z,23.10
2022-12-28T07:46:33.456Z,27.85
2022-12-28T07:49:01.353Z,23.42
2022-12-28T07:51:35.157Z,22.10
2022-12-28T07:54:03.969Z,26.55
2022-12-28T07:59:01.922Z,19.42
2022-12-28T08:01:32.436Z,24.65
2022-12-28T08:04:03.003Z,18.02
2022-12-28T08:06:33.555Z,7.40
2022-12-28T08:09:01.992Z,6.88
2022-12-28T08:11:33.123Z,12.23
2022-12-28T08:14:01.526Z,10.07
2022-12-28T08:16:32.436Z,7.60
2022-12-28T08:19:00.351Z,5.95
2022-12-28T08:21:33.990Z,4.60
2022-12-28T08:24:02.312Z,6.25
2022-12-28T08:26:37.502Z,5.40
2022-12-28T08:29:08.499Z,11.35
2022-12-28T08:31:39.249Z,8.45
2022-12-28T08:34:09.827Z,4.78
2022-12-28T08:36:37.401Z,5.10
2022-12-28T08:39:05.638Z,5.55
2022-12-28T08:41:33.321Z,4.93
2022-12-28T08:44:01.059Z,12.43
2022-12-28T08:46:32.002Z,8.48
2022-12-28T08:49:00.893Z,14.35
2022-12-28T08:51:39.907Z,11.82
2022-12-28T08:54:08.681Z,7.10
2022-12-28T08:56:38.618Z,6.97
2022-12-28T08:59:06.230Z,11.32
2022-12-28T09:01:43.110Z,16.50
2022-12-28T09:04:23.215Z,9.38
2022-12-28T09:06:51.107Z,12.13
2022-12-28T09:09:22.366Z,9.70
2022-12-28T09:11:50.297Z,11.85
2022-12-28T09:14:23.222Z,9.32
2022-12-28T09:16:53.558Z,7.00
2022-12-28T09:19:21.657Z,7.47
2022-12-28T09:21:52.672Z,7.57
2022-12-28T09:24:20.506Z,5.25
2022-12-28T09:26:48.771Z,5.47
2022-12-28T09:29:16.283Z,5.68
2022-12-28T09:31:44.344Z,3.85
2022-12-28T09:37:01.675Z,4.43
2022-12-28T09:39:29.639Z,3.72
2022-12-28T09:42:02.815Z,7.30
2022-12-28T09:44:39.048Z,9.40
2022-12-28T09:47:41.090Z,6.15
2022-12-28T09:50:18.613Z,9.27
2022-12-28T09:52:58.018Z,5.68
2022-12-28T09:55:26.992Z,5.78
2022-12-28T09:57:57.460Z,6.55
2022-12-28T10:00:28.674Z,7.75
2022-12-28T10:03:02.448Z,12.07
2022-12-28T10:05:30.493Z,7.07
2022-12-28T10:07:59.552Z,11.40
2022-12-28T10:10:28.307Z,9.75
2022-12-28T10:13:45.591Z,6.32
2022-12-28T10:16:00.679Z,8.27
2022-12-28T10:18:28.779Z,8.82
2022-12-28T10:20:56.975Z,10.52
2022-12-28T10:23:29.741Z,16.10
2022-12-28T10:25:59.585Z,12.52
2022-12-28T10:28:33.346Z,9.98
2022-12-28T10:31:10.550Z,5.60
2022-12-28T10:33:41.395Z,3.65
2022-12-28T10:36:15.097Z,4.88
2022-12-28T10:38:51.460Z,9.48
2022-12-28T10:41:20.309Z,9.63
2022-12-28T10:44:21.629Z,13.68
2022-12-28T10:46:56.464Z,8.52
2022-12-28T10:49:25.595Z,6.72
2022-12-28T10:52:03.139Z,6.50
2022-12-28T10:54:36.398Z,9.55
2022-12-28T10:57:04.520Z,15.18
2022-12-28T10:59:33.137Z,15.15
2022-12-28T11:02:19.233Z,15.48
2022-12-28T11:04:59.418Z,18.98
2022-12-28T11:07:38.752Z,28.75
2022-12-28T11:10:28.762Z,29.17
2022-12-28T11:13:01.228Z,52.00
2022-12-28T11:15:32.161Z,49.72
2022-12-28T11:18:02.562Z,36.40
2022-12-28T11:20:35.084Z,24.45
2022-12-28T11:23:06.605Z,17.17
2022-12-28T11:25:36.335Z,19.77
2022-12-28T11:28:14.454Z,18.88
2022-12-28T11:30:45.993Z,25.73
2022-12-28T11:33:29.173Z,26.85
2022-12-28T11:38:48.919Z,36.85
2022-12-28T11:41:31.780Z,18.88
2022-12-28T11:44:05.325Z,30.65
2022-12-28T11:46:36.776Z,16.25
2022-12-28T11:49:29.554Z,13.25
2022-12-28T11:52:18.314Z,12.85
2022-12-28T11:54:57.983Z,16.77
2022-12-28T11:57:43.734Z,11.93
2022-12-28T12:00:37.411Z,10.65
2022-12-28T12:03:05.087Z,11.25
2022-12-28T12:05:38.634Z,10.88
2022-12-28T12:08:12.577Z,14.15
2022-12-28T12:10:46.269Z,17.63
2022-12-28T12:13:40.016Z,21.95
2022-12-28T12:16:32.909Z,17.13
2022-12-28T12:19:02.353Z,12.80
2022-12-28T12:21:41.888Z,11.45
2022-12-28T12:24:37.423Z,14.75
2022-12-28T12:27:19.459Z,13.73
2022-12-28T12:29:59.584Z,12.30
2022-12-28T12:32:34.863Z,10.73
2022-12-28T12:35:08.008Z,8.93
2022-12-28T12:37:55.326Z,10.15
2022-12-28T12:40:34.967Z,11.98
2022-12-28T12:43:36.019Z,12.32
2022-12-28T12:46:12.683Z,9.05
2022-12-28T12:49:01.533Z,11.93
2022-12-28T12:51:35.406Z,11.45
2022-12-28T12:54:38.697Z,11.13
2022-12-28T12:57:30.270Z,10.07
2022-12-28T13:00:16.694Z,11.40
2022-12-28T13:03:04.528Z,20.52
2022-12-28T13:05:32.644Z,10.73
2022-12-28T13:08:01.400Z,11.82
2022-12-28T13:10:35.994Z,9.57
2022-12-28T13:13:05.609Z,9.05
2022-12-28T13:15:33.549Z,11.25
2022-12-28T13:20:58.679Z,12.57
2022-12-28T13:23:27.358Z,15.02
2022-12-28T13:26:02.337Z,12.98
2022-12-28T13:28:32.402Z,13.77
2022-12-28T13:31:13.752Z,13.57
2022-12-28T13:33:41.634Z,15.45
2022-12-28T13:36:19.293Z,13.85
2022-12-28T13:38:46.889Z,16.17
2022-12-28T13:41:23.397Z,15.80
2022-12-28T13:44:16.369Z,21.38
2022-12-28T13:46:50.300Z,19.55
2022-12-28T13:49:20.194Z,18.88
2022-12-28T13:51:53.319Z,17.05
2022-12-28T13:54:25.009Z,15.13
2022-12-28T13:57:14.452Z,14.93
2022-12-28T13:59:43.388Z,16.27
2022-12-28T14:02:17.065Z,13.48
2022-12-28T14:04:54.001Z,13.40
2022-12-28T14:07:26.664Z,19.88
2022-12-28T14:09:55.382Z,21.88
2022-12-28T14:12:23.747Z,30.73
2022-12-28T14:14:52.180Z,47.92
2022-12-28T14:17:20.799Z,44.40
2022-12-28T14:19:48.777Z,42.05
2022-12-28T14:22:45.934Z,51.67
2022-12-28T14:25:23.772Z,28.42
2022-12-28T14:27:57.187Z,16.75
2022-12-28T14:30:40.517Z,24.25
2022-12-28T14:33:25.037Z,20.77
2022-12-28T14:35:56.511Z,17.83
2022-12-28T14:38:29.424Z,21.10
2022-12-28T14:41:01.741Z,18.85
2022-12-28T14:43:34.606Z,37.90
2022-12-28T14:48:48.516Z,22.77
2022-12-28T14:51:17.290Z,18.27
2022-12-28T14:53:45.559Z,27.35
2022-12-28T14:56:18.656Z,30.02
2022-12-28T14:58:58.801Z,29.77
2022-12-28T15:01:44.966Z,31.75
2022-12-28T15:04:42.884Z,25.02
2022-12-28T15:07:12.139Z,29.50
2022-12-28T15:09:39.847Z,41.00
2022-12-28T15:12:10.036Z,49.95
2022-12-28T15:14:38.201Z,49.65
2022-12-28T15:17:05.961Z,59.88
2022-12-28T15:19:34.527Z,53.65
2022-12-28T15:22:02.409Z,69.30
2022-12-28T15:24:33.788Z,48.40
2022-12-28T15:27:07.431Z,42.38
2022-12-28T15:32:22.638Z,23.08
2022-12-28T15:34:50.160Z,32.15
2022-12-28T15:37:17.754Z,29.35
2022-12-28T15:39:45.274Z,36.08
2022-12-28T15:42:12.830Z,35.85
2022-12-28T15:44:40.435Z,34.88
2022-12-28T15:47:08.132Z,21.25
2022-12-28T15:49:35.689Z,25.65
2022-12-28T15:52:03.285Z,21.02
2022-12-28T15:54:30.865Z,27.63
2022-12-28T15:56:58.462Z,23.63
2022-12-28T15:59:26.705Z,21.25
2022-12-28T16:01:54.563Z,24.33
2022-12-28T16:04:22.487Z,19.05
2022-12-28T16:06:50.258Z,25.30
2022-12-28T16:09:17.735Z,26.75
2022-12-28T16:11:50.104Z,25.35
2022-12-28T16:14:20.717Z,20.75
2022-12-28T16:16:48.420Z,14.88
2022-12-28T16:19:16.678Z,20.05
2022-12-28T16:21:45.552Z,16.60
2022-12-28T16:24:13.219Z,27.70
2022-12-28T16:26:40.758Z,27.05
2022-12-28T16:29:08.350Z,25.15
2022-12-28T16:31:37.512Z,16.50
2022-12-28T16:34:08.124Z,19.13
2022-12-28T16:36:35.985Z,14.88
2022-12-28T16:39:05.530Z,10.27
2022-12-28T16:41:36.910Z,11.05
2022-12-28T16:44:08.009Z,10.85
2022-12-28T16:46:35.725Z,10.18
2022-12-28T16:49:03.448Z,15.45
2022-12-28T16:51:31.792Z,15.73
2022-12-28T16:53:59.484Z,12.18
2022-12-28T16:56:27.245Z,15.77
2022-12-28T16:58:59.416Z,17.73
2022-12-28T17:01:27.477Z,15.35
2022-12-28T17:04:01.840Z,20.95
2022-12-28T17:06:31.677Z,13.88
2022-12-28T17:09:02.386Z,17.92
2022-12-28T17:11:30.536Z,23.25
2022-12-28T17:14:06.693Z,28.13
2022-12-28T17:16:34.608Z,42.70
2022-12-28T17:19:02.859Z,47.60
2022-12-28T17:21:31.877Z,52.20
2022-12-28T17:24:00.054Z,54.13
2022-12-28T17:26:27.871Z,40.00
2022-12-28T17:28:56.239Z,33.33
2022-12-28T17:31:24.434Z,37.75
2022-12-28T17:33:54.887Z,48.42
2022-12-28T17:36:23.516Z,45.53
2022-12-28T17:38:51.243Z,64.50
2022-12-28T17:41:22.413Z,57.80
2022-12-28T17:43:55.425Z,64.93
2022-12-28T17:46:26.325Z,70.43
2022-12-28T17:48:56.092Z,72.72
2022-12-28T17:51:25.550Z,59.28
2022-12-28T17:53:55.149Z,69.50
2022-12-28T17:56:22.979Z,97.90
2022-12-28T17:58:55.011Z,102.88
2022-12-28T18:01:23.236Z,80.20
2022-12-28T18:03:51.504Z,74.70
2022-12-28T18:06:19.215Z,64.57
2022-12-28T18:08:46.787Z,45.42
2022-12-28T18:11:15.064Z,49.88
2022-12-28T18:13:43.738Z,40.40
2022-12-28T18:16:15.233Z,45.40
2022-12-28T18:18:43.758Z,36.75
2022-12-28T18:21:20.810Z,47.42
2022-12-28T18:23:52.172Z,46.78
2022-12-28T18:26:24.234Z,45.10
2022-12-28T18:28:52.596Z,42.50
2022-12-28T18:31:22.258Z,36.35
2022-12-28T18:33:50.290Z,28.50
2022-12-28T18:36:18.981Z,34.97
2022-12-28T18:38:48.017Z,67.78
2022-12-28T18:41:19.057Z,84.50
2022-12-28T18:43:47.901Z,91.65
2022-12-28T18:46:16.395Z,74.72
2022-12-28T18:48:44.225Z,51.83
2022-12-28T18:51:15.708Z,29.55
2022-12-28T18:53:44.440Z,25.45
2022-12-28T18:56:18.715Z,76.18
2022-12-28T18:58:52.584Z,99.68
2022-12-28T19:04:12.755Z,87.07
2022-12-28T19:06:41.700Z,83.18
2022-12-28T19:09:10.162Z,77.32
2022-12-28T19:11:39.328Z,78.57
2022-12-28T19:14:08.866Z,76.93
2022-12-28T19:16:36.543Z,75.47
2022-12-28T19:19:04.792Z,65.18
2022-12-28T19:21:37.907Z,90.70
2022-12-28T19:24:13.811Z,64.93
2022-12-28T19:26:42.339Z,42.90
2022-12-28T19:29:14.050Z,50.90
2022-12-28T19:31:42.013Z,53.40
2022-12-28T19:34:09.950Z,44.17
2022-12-28T19:36:38.055Z,32.55
2022-12-28T19:39:06.190Z,39.33
2022-12-28T19:41:36.985Z,40.58
2022-12-28T19:44:04.796Z,51.58
2022-12-28T19:46:32.820Z,46.50
2022-12-28T19:49:04.329Z,42.53
2022-12-28T19:51:33.252Z,32.83
2022-12-28T19:54:02.377Z,40.25
2022-12-28T19:56:30.183Z,56.00
2022-12-28T19:59:05.479Z,57.83
2022-12-28T20:01:35.508Z,67.03
2022-12-28T20:04:10.500Z,78.75
2022-12-28T20:06:43.032Z,58.28
2022-12-28T20:09:12.369Z,39.17
2022-12-28T20:11:42.504Z,36.33
2022-12-28T20:14:13.824Z,29.88
2022-12-28T20:16:43.684Z,43.08
2022-12-28T20:19:12.995Z,35.63
2022-12-28T20:21:44.128Z,43.08
2022-12-28T20:24:13.092Z,38.25
2022-12-28T20:26:42.754Z,54.53
2022-12-28T20:29:11.111Z,37.30
2022-12-28T20:31:39.695Z,29.90
2022-12-28T20:34:07.651Z,43.30
2022-12-28T20:36:35.762Z,49.38
2022-12-28T20:39:04.280Z,52.22
2022-12-28T20:41:52.123Z,41.40
2022-12-28T20:44:29.150Z,36.58
2022-12-28T20:46:58.250Z,39.78
2022-12-28T20:49:26.847Z,43.13
2022-12-28T20:51:55.047Z,42.05
2022-12-28T20:54:24.177Z,37.65
2022-12-28T20:56:55.293Z,31.33
2022-12-28T20:59:25.204Z,34.67
2022-12-28T21:01:53.978Z,31.23
2022-12-28T21:04:24.537Z,34.50
2022-12-28T21:06:56.115Z,33.63
2022-12-28T21:09:24.151Z,33.00
2022-12-28T21:11:52.295Z,39.87
2022-12-28T21:14:20.345Z,32.30
2022-12-28T21:16:48.620Z,35.15
2022-12-28T21:19:16.926Z,41.70
2022-12-28T21:21:44.983Z,33.08
2022-12-28T21:24:12.949Z,35.40
2022-12-28T21:26:40.872Z,32.30
2022-12-28T21:29:08.919Z,30.10
2022-12-28T21:31:36.778Z,40.97
2022-12-28T21:34:04.499Z,25.52
2022-12-28T21:36:32.015Z,20.13
2022-12-28T21:39:00.213Z,35.45
2022-12-28T21:41:46.385Z,37.97
2022-12-28T21:44:16.445Z,37.33
2022-12-28T21:46:44.612Z,25.80
2022-12-28T21:49:13.355Z,45.35
2022-12-28T21:51:41.235Z,80.32
2022-12-28T21:54:12.188Z,126.47
2022-12-28T21:56:41.220Z,69.60
2022-12-28T21:59:10.287Z,51.90
2022-12-28T22:01:58.559Z,39.83
2022-12-28T22:04:45.734Z,35.77
2022-12-28T22:07:16.003Z,30.08
2022-12-28T22:10:02.244Z,21.35
2022-12-28T22:12:37.008Z,15.20
2022-12-28T22:15:55.143Z,15.90
2022-12-28T22:21:13.309Z,28.47
2022-12-28T22:23:40.897Z,25.10
2022-12-28T22:26:08.522Z,26.23
2022-12-28T22:28:36.503Z,31.17
2022-12-28T22:31:05.634Z,26.43
2022-12-28T22:33:33.585Z,21.57
2022-12-28T22:36:18.907Z,19.97
2022-12-28T22:38:46.615Z,19.92
2022-12-28T22:41:14.253Z,15.57
2022-12-28T22:43:41.797Z,16.60
2022-12-28T22:46:11.893Z,15.10
2022-12-28T22:48:39.697Z,9.33
2022-12-28T22:51:09.765Z,11.57
2022-12-28T22:53:38.149Z,16.33
2022-12-28T22:56:08.287Z,12.20
2022-12-28T22:58:35.901Z,9.25
2022-12-28T23:01:13.389Z,13.33
2022-12-28T23:03:43.020Z,11.25
2022-12-28T23:06:12.603Z,8.90
2022-12-28T23:08:40.437Z,13.00
2022-12-28T23:11:38.121Z,13.57
2022-12-28T23:14:38.486Z,13.33
2022-12-28T23:17:13.433Z,10.63
2022-12-28T23:20:04.010Z,9.40
2022-12-28T23:22:53.469Z,19.77
2022-12-28T23:25:42.642Z,11.33
2022-12-28T23:28:13.370Z,14.63
2022-12-28T23:30:44.771Z,16.00
2022-12-28T23:33:12.825Z,10.88
2022-12-28T23:35:40.361Z,11.93
2022-12-28T23:38:08.016Z,17.70
2022-12-28T23:40:40.840Z,25.45
2022-12-28T23:45:36.609Z,36.42
2022-12-28T23:48:05.526Z,39.47
2022-12-28T23:50:33.385Z,37.60
2022-12-28T23:53:02.017Z,57.10
2022-12-28T23:55:29.619Z,36.05
2022-12-28T23:57:57.209Z,28.15
